Главная страница
METAR-TAF:

METAR-TAF

Аэропорты :

Ларнака, Кипр

широта: 34-53N, долгота: 033-38E, высота над уровнем моря: 2 м

Текущие метеонаблюдения

Эта сводка был подготовлена 10 минут назад, в 14:00 UTC
Ветер 16 Узел от южный-юго-западный
Температура 23°C
Влажность 31%
Давление 1011 hPa
Видимость 10 км и более
небольшая облачность на высоте 3000 фута

METAR: LCLK 221400Z 21016KT 9999 FEW030 23/05 Q1011 NOSIG

Время: 17:10 (14:10 UTC)

Прогноз

Эта сводка был подготовлена 2 часа и 40 минут назад, в 11:30 UTC
Прогноз действительный с 22-го 12 UTC до 23-го 12 UTC
Ветер 15 Узел от южный-юго-западный
Видимость 10 км и более
небольшая облачность на высоте 4000 фута
изменения
С 22-го 16 UTC до 22-го 18 UTC
Ветер 7 Узел от северо-западный
изменения
С 23-го 10 UTC до 23-го 12 UTC
Ветер 12 Узел от южный-юго-западный

TAF: LCLK 221130Z 2212/2312 21015KT 9999 FEW040 BECMG 2216/2218 32007KT BECMG 2310/2312 21012KT

Метеонаблюдения и прогнозы для более 4000 аэропортов (сводки METAR и TAF).

Имеющиеся станции представлены на карте желтыми и красными точками.

Чтобы увидеть название станции, наведите на нее мышь.

Затем щелкните, чтобы увидеть метеонаблюдения и метеопрогнозы.

Управление картой: чтобы увеличить масштаб, щелкните зеленые кнопки с черным крестиком; чтобы уменьшить масштаб, щелкните зеленую кнопку с тире; для просмотра соседних карт щелкайте зеленые стрелки.


METAR-TAF: